createdAt,value
2018-12-02T00:00:55.289Z,1.47
2018-12-02T00:03:24.976Z,1.37
2018-12-02T00:05:54.280Z,1.53
2018-12-02T00:08:23.574Z,3.87
2018-12-02T00:10:53.125Z,1.23
2018-12-02T00:13:22.823Z,1.30
2018-12-02T00:15:52.313Z,1.17
2018-12-02T00:18:21.626Z,2.03
2018-12-02T00:20:51.306Z,2.90
2018-12-02T00:23:20.634Z,1.27
2018-12-02T00:25:49.802Z,2.67
2018-12-02T00:28:19.235Z,1.90
2018-12-02T00:30:48.496Z,1.90
2018-12-02T00:33:17.678Z,2.07
2018-12-02T00:35:47.107Z,2.10
2018-12-02T00:38:16.488Z,1.50
2018-12-02T00:40:45.721Z,1.50
2018-12-02T00:43:14.985Z,1.73
2018-12-02T00:45:44.324Z,1.87
2018-12-02T00:48:13.865Z,1.30
2018-12-02T00:50:43.344Z,1.20
2018-12-02T00:53:12.557Z,1.10
2018-12-02T00:55:44.238Z,1.30
2018-12-02T00:58:13.712Z,1.40
2018-12-02T01:00:43.790Z,1.10
2018-12-02T01:03:13.152Z,1.40
2018-12-02T01:05:42.853Z,1.40
2018-12-02T01:08:12.337Z,1.20
2018-12-02T01:10:41.888Z,0.80
2018-12-02T01:13:11.365Z,1.00
2018-12-02T01:15:41.986Z,1.00
2018-12-02T01:18:11.387Z,0.90
2018-12-02T01:20:41.336Z,0.93
2018-12-02T01:23:10.811Z,0.83
2018-12-02T01:25:40.293Z,0.97
2018-12-02T01:28:09.619Z,0.90
2018-12-02T01:30:39.121Z,0.80
2018-12-02T01:33:08.615Z,1.30
2018-12-02T01:35:38.146Z,1.33
2018-12-02T01:38:07.613Z,2.83
2018-12-02T01:40:37.203Z,2.97
2018-12-02T01:43:06.468Z,2.13
2018-12-02T01:45:36.985Z,0.83
2018-12-02T01:48:06.775Z,0.83
2018-12-02T01:50:36.000Z,0.97
2018-12-02T01:53:05.962Z,0.90
2018-12-02T01:55:35.400Z,0.80
2018-12-02T01:58:05.253Z,0.60
2018-12-02T02:00:34.633Z,0.80
2018-12-02T02:03:04.379Z,0.87
2018-12-02T02:05:33.628Z,0.70
2018-12-02T02:08:03.118Z,0.50
2018-12-02T02:10:32.345Z,0.83
2018-12-02T02:13:01.701Z,0.60
2018-12-02T02:15:31.018Z,0.53
2018-12-02T02:18:00.209Z,0.73
2018-12-02T02:20:29.620Z,0.60
2018-12-02T02:22:59.138Z,0.60
2018-12-02T02:25:28.636Z,0.60
2018-12-02T02:27:59.307Z,0.60
2018-12-02T02:30:29.930Z,0.57
2018-12-02T02:32:59.405Z,0.60
2018-12-02T02:35:28.922Z,0.63
2018-12-02T02:37:58.844Z,0.60
2018-12-02T02:40:29.520Z,0.70
2018-12-02T02:42:58.783Z,0.60
2018-12-02T02:45:28.144Z,0.40
2018-12-02T02:47:57.685Z,0.50
2018-12-02T02:50:27.809Z,0.60
2018-12-02T02:52:59.249Z,0.50
2018-12-02T02:55:28.701Z,0.73
2018-12-02T02:57:58.481Z,0.67
2018-12-02T03:00:28.801Z,0.53
2018-12-02T03:02:57.987Z,0.60
2018-12-02T03:05:27.328Z,0.70
2018-12-02T03:07:56.785Z,0.80
2018-12-02T03:10:26.304Z,0.80
2018-12-02T03:12:55.947Z,0.80
2018-12-02T03:15:25.270Z,0.73
2018-12-02T03:17:54.566Z,1.00
2018-12-02T03:20:24.303Z,0.80
2018-12-02T03:22:54.933Z,0.90
2018-12-02T03:25:25.530Z,0.83
2018-12-02T03:27:55.230Z,1.20
2018-12-02T03:30:25.633Z,0.63
2018-12-02T03:32:55.138Z,0.90
2018-12-02T03:35:26.447Z,0.70
2018-12-02T03:37:56.563Z,0.90
2018-12-02T03:40:26.925Z,1.00
2018-12-02T03:42:56.824Z,0.90
2018-12-02T03:45:29.313Z,0.90
2018-12-02T03:47:59.197Z,1.20
2018-12-02T03:50:28.605Z,1.20
2018-12-02T03:52:58.069Z,1.40
2018-12-02T03:55:27.277Z,1.00
2018-12-02T03:57:57.312Z,0.80
2018-12-02T04:00:27.160Z,0.60
2018-12-02T04:02:57.362Z,0.80
2018-12-02T04:05:27.073Z,1.10
2018-12-02T04:07:56.361Z,0.83
2018-12-02T04:10:25.675Z,0.60
2018-12-02T04:12:55.144Z,1.03
2018-12-02T04:15:25.542Z,0.70
2018-12-02T04:17:54.964Z,0.83
2018-12-02T04:20:24.488Z,0.80
2018-12-02T04:22:54.071Z,0.77
2018-12-02T04:25:26.405Z,1.10
2018-12-02T04:27:55.911Z,0.77
2018-12-02T04:30:26.001Z,0.70
2018-12-02T04:32:55.314Z,0.90
2018-12-02T04:35:25.641Z,0.80
2018-12-02T04:37:55.371Z,1.00
2018-12-02T04:40:24.599Z,0.93
2018-12-02T04:42:53.936Z,0.90
2018-12-02T04:45:23.453Z,0.90
2018-12-02T04:47:52.987Z,0.90
2018-12-02T04:50:24.426Z,0.50
2018-12-02T04:52:54.002Z,0.97
2018-12-02T04:55:23.480Z,0.67
2018-12-02T04:57:53.016Z,0.77
2018-12-02T05:00:22.502Z,0.73
2018-12-02T05:02:52.728Z,0.80
2018-12-02T05:05:24.347Z,0.60
2018-12-02T05:07:54.369Z,0.60
2018-12-02T05:10:23.645Z,0.60
2018-12-02T05:12:53.232Z,0.70
2018-12-02T05:15:23.634Z,0.90
2018-12-02T05:17:52.844Z,0.60
2018-12-02T05:20:23.293Z,0.60
2018-12-02T05:22:52.777Z,0.73
2018-12-02T05:25:22.154Z,0.70
2018-12-02T05:27:51.593Z,0.60
2018-12-02T05:30:22.975Z,0.63
2018-12-02T05:32:53.513Z,0.90
2018-12-02T05:35:23.118Z,0.57
2018-12-02T05:37:52.677Z,0.70
2018-12-02T05:40:23.696Z,0.80
2018-12-02T05:42:54.244Z,0.53
2018-12-02T05:45:24.342Z,0.50
2018-12-02T05:47:53.757Z,0.53
2018-12-02T05:50:24.727Z,0.50
2018-12-02T05:52:56.237Z,0.77
2018-12-02T05:55:30.302Z,0.70
2018-12-02T05:57:59.766Z,0.50
2018-12-02T06:00:29.281Z,0.50
2018-12-02T06:02:58.758Z,0.47
2018-12-02T06:05:28.284Z,0.63
2018-12-02T06:07:57.774Z,0.63
2018-12-02T06:10:27.493Z,0.40
2018-12-02T06:12:56.967Z,0.50
2018-12-02T06:15:27.086Z,0.37
2018-12-02T06:17:56.301Z,0.67
2018-12-02T06:20:27.122Z,0.60
2018-12-02T06:22:57.718Z,0.53
2018-12-02T06:25:27.462Z,0.60
2018-12-02T06:27:56.900Z,0.40
2018-12-02T06:30:28.874Z,0.50
2018-12-02T06:32:59.608Z,0.40
2018-12-02T06:35:29.321Z,0.53
2018-12-02T06:38:00.038Z,0.73
2018-12-02T06:40:30.001Z,0.50
2018-12-02T06:42:59.274Z,0.87
2018-12-02T06:45:29.452Z,0.50
2018-12-02T06:47:58.973Z,0.60
2018-12-02T06:50:29.293Z,0.40
2018-12-02T06:52:58.698Z,0.30
2018-12-02T06:55:34.643Z,0.47
2018-12-02T06:58:09.588Z,0.40
2018-12-02T07:02:49.590Z,0.70
2018-12-02T07:05:23.791Z,0.50
2018-12-02T07:07:53.272Z,0.40
2018-12-02T07:10:22.784Z,0.60
2018-12-02T07:12:52.287Z,0.70
2018-12-02T07:15:21.812Z,0.63
2018-12-02T07:17:58.920Z,0.70
2018-12-02T07:20:31.802Z,0.70
2018-12-02T07:23:02.943Z,0.50
2018-12-02T07:25:38.083Z,0.60
2018-12-02T07:28:07.847Z,0.73
2018-12-02T07:30:37.064Z,0.97
2018-12-02T07:33:07.080Z,0.60
2018-12-02T07:35:36.561Z,0.60
2018-12-02T07:38:13.397Z,0.50
2018-12-02T07:40:43.076Z,0.40
2018-12-02T07:43:13.549Z,0.40
2018-12-02T07:45:42.768Z,0.77
2018-12-02T07:48:11.993Z,0.60
2018-12-02T07:50:41.478Z,0.73
2018-12-02T07:53:11.018Z,1.00
2018-12-02T07:55:40.492Z,1.30
2018-12-02T07:58:15.050Z,0.80
2018-12-02T08:00:44.880Z,0.60
2018-12-02T08:03:14.327Z,0.90
2018-12-02T08:05:43.841Z,0.70
2018-12-02T08:08:13.350Z,0.50
2018-12-02T08:10:42.895Z,0.70
2018-12-02T08:13:12.346Z,0.60
2018-12-02T08:15:42.480Z,0.50
2018-12-02T08:18:11.983Z,0.57
2018-12-02T08:20:41.504Z,0.60
2018-12-02T08:23:11.212Z,0.70
2018-12-02T08:25:40.726Z,0.60
2018-12-02T08:28:10.226Z,0.57
2018-12-02T08:30:39.689Z,1.00
2018-12-02T08:33:09.065Z,0.83
2018-12-02T08:35:38.924Z,0.70
2018-12-02T08:38:11.252Z,0.70
2018-12-02T08:40:40.641Z,0.80
2018-12-02T08:43:10.129Z,0.80
2018-12-02T08:45:39.862Z,1.10
2018-12-02T08:48:09.112Z,0.80
2018-12-02T08:50:38.520Z,1.20
2018-12-02T08:53:08.355Z,1.10
2018-12-02T08:55:39.330Z,0.97
2018-12-02T08:58:09.001Z,0.67
2018-12-02T09:00:38.799Z,0.70
2018-12-02T09:03:09.698Z,0.63
2018-12-02T09:05:39.198Z,0.87
2018-12-02T09:08:10.029Z,0.90
2018-12-02T09:10:40.009Z,0.70
2018-12-02T09:13:10.283Z,0.40
2018-12-02T09:15:40.253Z,0.73
2018-12-02T09:18:10.806Z,0.90
2018-12-02T09:20:40.117Z,0.70
2018-12-02T09:23:10.825Z,0.70
2018-12-02T09:25:40.290Z,1.10
2018-12-02T09:28:10.479Z,1.03
2018-12-02T09:30:39.941Z,1.10
2018-12-02T09:33:09.346Z,0.90
2018-12-02T09:35:38.953Z,0.80
2018-12-02T09:38:08.465Z,0.90
2018-12-02T09:40:38.181Z,0.60
2018-12-02T09:43:07.980Z,0.70
2018-12-02T09:45:37.521Z,0.50
2018-12-02T09:48:07.517Z,0.80
2018-12-02T09:50:36.753Z,2.37
2018-12-02T09:53:07.286Z,0.60
2018-12-02T09:55:41.750Z,1.00
2018-12-02T09:58:13.788Z,1.10
2018-12-02T10:00:43.978Z,1.00
2018-12-02T10:03:13.924Z,1.30
2018-12-02T10:05:43.588Z,0.60
2018-12-02T10:08:12.864Z,0.97
2018-12-02T10:10:42.264Z,0.67
2018-12-02T10:13:13.608Z,2.33
2018-12-02T10:15:44.054Z,0.70
2018-12-02T10:18:13.824Z,0.50
2018-12-02T10:20:43.365Z,0.80
2018-12-02T10:23:12.839Z,0.60
2018-12-02T10:25:42.301Z,0.80
2018-12-02T10:28:12.204Z,2.27
2018-12-02T10:30:41.787Z,2.27
2018-12-02T10:33:11.260Z,2.83
2018-12-02T10:35:40.777Z,2.90
2018-12-02T10:38:10.073Z,2.50
2018-12-02T10:40:39.815Z,2.83
2018-12-02T10:43:09.736Z,1.67
2018-12-02T10:45:39.014Z,1.47
2018-12-02T10:48:11.397Z,1.03
2018-12-02T10:50:40.853Z,1.00
2018-12-02T10:53:25.806Z,0.90
2018-12-02T10:55:57.628Z,0.60
2018-12-02T10:58:28.403Z,0.50
2018-12-02T11:01:04.317Z,0.80
2018-12-02T11:03:33.818Z,1.00
2018-12-02T11:06:03.323Z,0.80
2018-12-02T11:08:32.825Z,0.50
2018-12-02T11:11:02.138Z,0.90
2018-12-02T11:13:31.631Z,0.70
2018-12-02T11:16:01.098Z,0.57
2018-12-02T11:18:30.633Z,0.93
2018-12-02T11:21:00.168Z,0.97
2018-12-02T11:23:29.671Z,0.70
2018-12-02T11:25:59.344Z,0.77
2018-12-02T11:28:28.863Z,0.60
2018-12-02T11:30:58.531Z,0.60
2018-12-02T11:33:28.297Z,0.47
2018-12-02T11:35:58.171Z,0.87
2018-12-02T11:38:27.471Z,0.80
2018-12-02T11:40:57.166Z,0.67
2018-12-02T11:43:26.534Z,0.80
2018-12-02T11:45:55.987Z,0.83
2018-12-02T11:48:25.497Z,1.13
2018-12-02T11:50:55.237Z,0.80
2018-12-02T11:53:24.807Z,0.63
2018-12-02T11:55:54.842Z,1.33
2018-12-02T11:58:24.349Z,1.20
2018-12-02T12:00:54.088Z,0.83
2018-12-02T12:03:23.307Z,0.70
2018-12-02T12:05:52.659Z,1.00
2018-12-02T12:08:22.136Z,0.50
2018-12-02T12:10:51.876Z,0.70
2018-12-02T12:13:21.362Z,0.70
2018-12-02T12:15:50.613Z,0.40
2018-12-02T12:18:20.201Z,0.50
2018-12-02T12:20:49.440Z,0.60
2018-12-02T12:23:20.759Z,0.60
2018-12-02T12:25:50.020Z,0.63
2018-12-02T12:28:19.614Z,2.23
2018-12-02T12:30:48.976Z,1.00
2018-12-02T12:33:18.408Z,0.87
2018-12-02T12:35:50.437Z,1.53
2018-12-02T12:38:19.904Z,0.70
2018-12-02T12:40:51.252Z,0.87
2018-12-02T12:43:29.788Z,0.80
2018-12-02T12:46:00.477Z,0.87
2018-12-02T12:48:29.719Z,0.90
2018-12-02T12:50:59.360Z,0.90
2018-12-02T12:53:28.656Z,0.77
2018-12-02T12:55:58.157Z,0.77
2018-12-02T12:58:27.628Z,1.50
2018-12-02T13:00:57.122Z,1.20
2018-12-02T13:03:26.667Z,0.77
2018-12-02T13:05:56.135Z,0.97
2018-12-02T13:08:25.628Z,0.90
2018-12-02T13:10:55.193Z,0.80
2018-12-02T13:13:24.637Z,1.10
2018-12-02T13:15:53.974Z,0.90
2018-12-02T13:18:23.459Z,0.80
2018-12-02T13:20:54.996Z,1.07
2018-12-02T13:23:24.597Z,1.20
2018-12-02T13:25:54.409Z,0.80
2018-12-02T13:28:23.749Z,1.00
2018-12-02T13:30:53.201Z,1.30
2018-12-02T13:33:22.555Z,1.07
2018-12-02T13:35:52.013Z,1.40
2018-12-02T13:38:21.577Z,0.97
2018-12-02T13:40:51.017Z,1.20
2018-12-02T13:43:22.605Z,1.40
2018-12-02T13:45:52.248Z,1.20
2018-12-02T13:48:21.588Z,1.30
2018-12-02T13:50:50.933Z,0.93
2018-12-02T13:53:20.393Z,1.27
2018-12-02T13:55:49.953Z,3.23
2018-12-02T13:58:19.444Z,2.03
2018-12-02T14:00:48.913Z,2.03
2018-12-02T14:03:18.441Z,1.90
2018-12-02T14:05:48.995Z,2.00
2018-12-02T14:08:18.434Z,1.87
2018-12-02T14:10:48.005Z,2.33
2018-12-02T14:13:19.307Z,2.57
2018-12-02T14:16:13.617Z,2.10
2018-12-02T14:18:44.205Z,2.10
2018-12-02T14:21:13.665Z,3.20
2018-12-02T14:23:44.275Z,2.37
2018-12-02T14:26:17.497Z,1.63
2018-12-02T14:28:55.252Z,1.70
2018-12-02T14:31:25.433Z,1.30
2018-12-02T14:33:54.856Z,1.40
2018-12-02T14:36:24.213Z,1.60
2018-12-02T14:38:53.698Z,1.47
2018-12-02T14:41:23.375Z,1.27
2018-12-02T14:43:52.701Z,1.20
2018-12-02T14:46:22.195Z,1.30
2018-12-02T14:48:51.505Z,1.50
2018-12-02T14:51:21.186Z,2.97
2018-12-02T14:53:50.945Z,3.07
2018-12-02T14:56:20.407Z,3.03
2018-12-02T14:58:49.629Z,2.60
2018-12-02T15:01:18.913Z,2.40
2018-12-02T15:03:48.440Z,1.70
2018-12-02T15:06:17.814Z,1.73
2018-12-02T15:08:47.369Z,1.60
2018-12-02T15:11:16.829Z,1.23
2018-12-02T15:13:46.369Z,1.40
2018-12-02T15:16:15.860Z,1.60
2018-12-02T15:18:45.420Z,1.60
2018-12-02T15:21:14.872Z,1.37
2018-12-02T15:23:44.376Z,1.67
2018-12-02T15:26:13.922Z,1.40
2018-12-02T15:28:43.406Z,1.70
2018-12-02T15:31:13.089Z,2.03
2018-12-02T15:33:42.654Z,1.60
2018-12-02T15:36:12.140Z,2.30
2018-12-02T15:38:41.850Z,2.27
2018-12-02T15:41:11.664Z,1.77
2018-12-02T15:43:41.206Z,2.20
2018-12-02T15:46:10.973Z,2.43
2018-12-02T15:48:40.434Z,5.77
2018-12-02T15:51:09.976Z,4.03
2018-12-02T15:53:39.434Z,3.77
2018-12-02T15:56:08.991Z,3.50
2018-12-02T15:58:38.853Z,3.00
2018-12-02T16:01:08.397Z,3.27
2018-12-02T16:03:37.870Z,5.17
2018-12-02T16:06:07.453Z,3.40
2018-12-02T16:08:36.911Z,3.90
2018-12-02T16:11:06.900Z,3.20
2018-12-02T16:13:36.202Z,2.47
2018-12-02T16:16:05.845Z,2.37
2018-12-02T16:18:35.094Z,5.80
2018-12-02T16:21:04.354Z,2.53
2018-12-02T16:23:33.835Z,4.07
2018-12-02T16:26:03.237Z,2.50
2018-12-02T16:28:32.709Z,2.43
2018-12-02T16:31:01.961Z,2.60
2018-12-02T16:33:32.401Z,2.87
2018-12-02T16:36:01.868Z,2.87
2018-12-02T16:38:31.058Z,3.47
2018-12-02T16:41:00.473Z,3.00
2018-12-02T16:43:29.969Z,2.80
2018-12-02T16:45:59.460Z,2.57
2018-12-02T16:48:28.881Z,2.80
2018-12-02T16:50:58.140Z,2.50
2018-12-02T16:53:29.229Z,3.67
2018-12-02T16:56:10.728Z,3.47
2018-12-02T16:59:31.269Z,3.50
2018-12-02T17:02:05.133Z,2.67
2018-12-02T17:04:32.143Z,3.30
2018-12-02T17:07:01.659Z,2.80
2018-12-02T17:09:31.200Z,3.53
2018-12-02T17:12:00.655Z,3.50
2018-12-02T17:14:29.898Z,3.40
2018-12-02T17:16:59.252Z,3.23
2018-12-02T17:19:28.777Z,3.10
2018-12-02T17:21:58.297Z,3.50
2018-12-02T17:24:27.517Z,3.40
2018-12-02T17:26:56.924Z,3.63
2018-12-02T17:29:26.389Z,3.33
2018-12-02T17:32:07.809Z,3.63
2018-12-02T17:34:37.276Z,3.77
2018-12-02T17:37:06.933Z,3.40
2018-12-02T17:39:44.716Z,3.90
2018-12-02T17:42:14.819Z,3.50
2018-12-02T17:44:44.544Z,3.50
2018-12-02T17:47:14.031Z,3.73
2018-12-02T17:49:43.254Z,3.63
2018-12-02T17:52:13.077Z,3.90
2018-12-02T17:54:42.719Z,3.70
2018-12-02T17:57:12.258Z,3.87
2018-12-02T17:59:41.730Z,3.43
2018-12-02T18:02:11.850Z,3.80
2018-12-02T18:04:41.397Z,3.73
2018-12-02T18:07:10.906Z,3.70
2018-12-02T18:09:40.369Z,6.57
2018-12-02T18:12:09.894Z,4.10
2018-12-02T18:14:39.373Z,3.90
2018-12-02T18:17:08.893Z,3.93
2018-12-02T18:19:38.365Z,3.67
2018-12-02T18:22:07.737Z,3.97
2018-12-02T18:24:37.205Z,4.03
2018-12-02T18:27:06.745Z,3.83
2018-12-02T18:29:36.485Z,3.80
2018-12-02T18:32:06.548Z,3.27
2018-12-02T18:34:36.428Z,3.60
2018-12-02T18:37:08.061Z,3.60
2018-12-02T18:39:37.298Z,3.53
2018-12-02T18:42:08.405Z,2.90
2018-12-02T18:44:37.932Z,3.07
2018-12-02T18:47:07.455Z,2.90
2018-12-02T18:49:36.650Z,3.30
2018-12-02T18:52:06.704Z,3.57
2018-12-02T18:54:35.981Z,3.13
2018-12-02T18:57:05.797Z,4.70
2018-12-02T18:59:35.193Z,3.63
2018-12-02T19:02:05.173Z,3.30
2018-12-02T19:04:34.625Z,4.90
2018-12-02T19:07:04.269Z,5.00
2018-12-02T19:09:33.544Z,4.83
2018-12-02T19:12:02.727Z,4.50
2018-12-02T19:14:32.005Z,4.40
2018-12-02T19:17:01.273Z,4.40
2018-12-02T19:19:31.002Z,4.40
2018-12-02T19:22:00.962Z,4.30
2018-12-02T19:24:29.676Z,4.00
2018-12-02T19:26:59.120Z,3.60
2018-12-02T19:29:28.598Z,9.57
2018-12-02T19:31:57.911Z,10.80
2018-12-02T19:34:27.950Z,10.07
2018-12-02T19:37:00.351Z,6.63
2018-12-02T19:39:29.704Z,3.90
2018-12-02T19:41:59.013Z,2.57
2018-12-02T19:44:28.185Z,3.57
2018-12-02T19:46:57.622Z,3.53
2018-12-02T19:49:26.756Z,5.03
2018-12-02T19:51:56.222Z,4.03
2018-12-02T19:54:25.487Z,3.10
2018-12-02T19:56:54.709Z,2.30
2018-12-02T19:59:23.828Z,3.70
2018-12-02T20:01:53.060Z,10.47
2018-12-02T20:04:22.490Z,4.13
2018-12-02T20:06:51.823Z,2.80
2018-12-02T20:09:21.065Z,3.10
2018-12-02T20:11:50.546Z,2.83
2018-12-02T20:14:19.725Z,3.60
2018-12-02T20:16:49.260Z,4.37
2018-12-02T20:19:23.980Z,3.30
2018-12-02T20:21:53.340Z,4.10
2018-12-02T20:24:43.350Z,3.40
2018-12-02T20:27:12.792Z,8.93
2018-12-02T20:29:42.113Z,4.20
2018-12-02T20:32:12.695Z,4.17
2018-12-02T20:34:42.161Z,3.30
2018-12-02T20:37:11.428Z,3.00
2018-12-02T20:39:40.931Z,3.00
2018-12-02T20:42:10.087Z,3.17
2018-12-02T20:44:39.363Z,3.07
2018-12-02T20:47:08.670Z,3.13
2018-12-02T20:49:38.056Z,3.70
2018-12-02T20:52:07.969Z,3.97
2018-12-02T20:54:37.311Z,3.67
2018-12-02T20:57:07.088Z,3.27
2018-12-02T20:59:36.494Z,2.77
2018-12-02T21:02:06.709Z,2.30
2018-12-02T21:04:37.030Z,2.70
2018-12-02T21:07:07.090Z,2.67
2018-12-02T21:09:36.602Z,3.10
2018-12-02T21:12:06.589Z,2.80
2018-12-02T21:14:35.905Z,3.37
2018-12-02T21:17:05.602Z,3.20
2018-12-02T21:19:35.095Z,2.30
2018-12-02T21:22:04.610Z,2.30
2018-12-02T21:24:33.989Z,2.20
2018-12-02T21:27:03.435Z,2.30
2018-12-02T21:29:32.883Z,2.20
2018-12-02T21:32:02.204Z,2.33
2018-12-02T21:34:31.336Z,2.33
2018-12-02T21:37:00.802Z,2.47
2018-12-02T21:39:29.957Z,2.40
2018-12-02T21:41:59.577Z,3.00
2018-12-02T21:44:28.893Z,2.50
2018-12-02T21:46:58.215Z,2.60
2018-12-02T21:49:29.602Z,2.60
2018-12-02T21:52:00.504Z,2.30
2018-12-02T21:54:31.950Z,4.97
2018-12-02T21:57:01.145Z,2.50
2018-12-02T21:59:30.452Z,2.70
2018-12-02T22:01:59.937Z,3.30
2018-12-02T22:04:29.256Z,2.70
2018-12-02T22:06:58.532Z,2.73
2018-12-02T22:09:27.861Z,2.90
2018-12-02T22:11:57.127Z,2.97
2018-12-02T22:14:26.404Z,3.50
2018-12-02T22:16:55.572Z,3.10
2018-12-02T22:19:25.047Z,3.20
2018-12-02T22:21:54.329Z,3.10
2018-12-02T22:24:23.650Z,3.53
2018-12-02T22:26:52.933Z,3.43
2018-12-02T22:29:22.252Z,4.20
2018-12-02T22:31:51.519Z,4.07
2018-12-02T22:34:20.683Z,4.63
2018-12-02T22:36:49.880Z,4.27
2018-12-02T22:39:19.237Z,4.30
2018-12-02T22:41:48.521Z,4.30
2018-12-02T22:44:18.056Z,4.80
2018-12-02T22:46:47.980Z,4.93
2018-12-02T22:49:17.466Z,4.83
2018-12-02T22:51:47.053Z,5.13
2018-12-02T22:54:16.251Z,4.63
2018-12-02T22:56:45.837Z,5.10
2018-12-02T22:59:15.301Z,4.77
2018-12-02T23:01:50.475Z,4.80
2018-12-02T23:04:19.821Z,4.80
2018-12-02T23:06:49.214Z,4.50
2018-12-02T23:09:18.591Z,5.20
2018-12-02T23:11:48.333Z,4.70
2018-12-02T23:14:17.674Z,4.23
2018-12-02T23:16:58.116Z,8.40
2018-12-02T23:19:27.484Z,4.50
2018-12-02T23:21:56.814Z,4.60
2018-12-02T23:24:25.972Z,5.00
2018-12-02T23:26:55.406Z,4.27
2018-12-02T23:29:24.677Z,4.27
2018-12-02T23:31:53.890Z,4.43
2018-12-02T23:34:23.264Z,3.50
2018-12-02T23:36:52.612Z,3.57
2018-12-02T23:39:21.913Z,3.90
2018-12-02T23:41:51.423Z,3.63
2018-12-02T23:44:20.658Z,3.57
2018-12-02T23:46:50.393Z,3.80
2018-12-02T23:49:19.573Z,3.93
2018-12-02T23:51:49.018Z,3.47
2018-12-02T23:54:18.496Z,3.90
2018-12-02T23:56:48.055Z,3.53
2018-12-02T23:59:17.333Z,3.60
